createdAt,value
2023-01-19T00:02:18.763Z,54.50
2023-01-19T00:04:50.863Z,45.90
2023-01-19T00:07:23.072Z,59.20
2023-01-19T00:09:55.027Z,48.10
2023-01-19T00:12:27.721Z,59.40
2023-01-19T00:14:59.577Z,51.70
2023-01-19T00:17:31.918Z,60.20
2023-01-19T00:20:04.360Z,46.20
2023-01-19T00:22:36.673Z,52.70
2023-01-19T00:25:09.981Z,51.60
2023-01-19T00:27:42.608Z,53.00
2023-01-19T00:30:16.305Z,51.60
2023-01-19T00:32:48.551Z,53.70
2023-01-19T00:35:20.667Z,49.60
2023-01-19T00:37:52.791Z,51.80
2023-01-19T00:40:25.021Z,57.80
2023-01-19T00:42:58.661Z,53.40
2023-01-19T00:45:30.842Z,55.10
2023-01-19T00:48:02.881Z,51.90
2023-01-19T00:50:35.472Z,46.30
2023-01-19T00:53:07.508Z,35.70
2023-01-19T00:55:39.294Z,51.80
2023-01-19T00:58:11.152Z,55.40
2023-01-19T01:00:43.258Z,48.80
2023-01-19T01:03:15.446Z,50.60
2023-01-19T01:05:47.234Z,45.40
2023-01-19T01:08:19.016Z,44.60
2023-01-19T01:10:51.248Z,47.90
2023-01-19T01:13:26.190Z,49.10
2023-01-19T01:15:59.849Z,48.50
2023-01-19T01:18:31.614Z,55.50
2023-01-19T01:21:07.597Z,55.10
2023-01-19T01:23:39.542Z,49.00
2023-01-19T01:26:11.532Z,53.20
2023-01-19T01:28:43.321Z,45.20
2023-01-19T01:31:15.312Z,53.20
2023-01-19T01:33:47.135Z,47.50
2023-01-19T01:36:20.841Z,49.50
2023-01-19T01:38:52.698Z,39.10
2023-01-19T01:41:26.024Z,43.80
2023-01-19T01:44:01.868Z,41.30
2023-01-19T01:46:34.132Z,40.70
2023-01-19T01:49:07.449Z,46.80
2023-01-19T01:51:42.154Z,39.30
2023-01-19T01:54:19.239Z,47.60
2023-01-19T01:56:53.316Z,41.80
2023-01-19T02:02:18.140Z,44.10
2023-01-19T02:04:54.256Z,46.60
2023-01-19T02:07:49.234Z,47.70
2023-01-19T02:10:39.015Z,43.90
2023-01-19T02:13:21.015Z,47.30
2023-01-19T02:15:54.299Z,42.10
2023-01-19T02:18:27.840Z,39.70
2023-01-19T02:21:05.555Z,47.00
2023-01-19T02:23:41.701Z,55.70
2023-01-19T02:26:16.063Z,55.00
2023-01-19T02:28:50.568Z,51.20
2023-01-19T02:31:22.606Z,47.90
2023-01-19T02:33:55.753Z,50.40
2023-01-19T02:36:29.922Z,50.10
2023-01-19T02:39:02.708Z,46.10
2023-01-19T02:41:39.155Z,45.70
2023-01-19T02:44:12.041Z,47.10
2023-01-19T02:46:43.812Z,49.50
2023-01-19T02:49:15.931Z,47.80
2023-01-19T02:51:47.689Z,52.40
2023-01-19T02:54:35.037Z,40.40
2023-01-19T02:57:17.690Z,49.10
2023-01-19T03:00:01.135Z,55.70
2023-01-19T03:02:40.618Z,61.00
2023-01-19T03:05:23.105Z,48.00
2023-01-19T03:08:01.340Z,51.10
2023-01-19T03:10:37.891Z,53.10
2023-01-19T03:13:14.440Z,50.30
2023-01-19T03:15:50.440Z,52.40
2023-01-19T03:18:24.499Z,43.40
2023-01-19T03:20:59.035Z,52.90
2023-01-19T03:23:33.439Z,50.70
2023-01-19T03:26:06.552Z,49.60
2023-01-19T03:28:39.705Z,55.30
2023-01-19T03:31:14.199Z,54.40
2023-01-19T03:33:48.947Z,55.20
2023-01-19T03:36:22.896Z,55.10
2023-01-19T03:38:55.673Z,50.60
2023-01-19T03:41:29.199Z,51.10
2023-01-19T03:44:01.737Z,49.80
2023-01-19T03:46:34.148Z,42.20
2023-01-19T03:49:06.181Z,48.30
2023-01-19T03:51:39.929Z,50.50
2023-01-19T03:54:12.886Z,55.60
2023-01-19T03:56:44.958Z,45.10
2023-01-19T03:59:17.804Z,48.40
2023-01-19T04:01:49.765Z,45.00
2023-01-19T04:04:21.605Z,53.70
2023-01-19T04:06:53.830Z,54.70
2023-01-19T04:09:25.949Z,45.70
2023-01-19T04:11:58.026Z,47.00
2023-01-19T04:14:29.812Z,55.70
2023-01-19T04:17:01.656Z,55.70
2023-01-19T04:19:33.733Z,50.50
2023-01-19T04:22:05.699Z,54.60
2023-01-19T04:24:37.545Z,46.70
2023-01-19T04:27:09.351Z,48.50
2023-01-19T04:29:41.138Z,46.70
2023-01-19T04:32:14.144Z,47.20
2023-01-19T04:34:46.349Z,48.80
2023-01-19T04:37:18.208Z,50.80
2023-01-19T04:39:50.200Z,52.50
2023-01-19T04:42:22.365Z,52.90
2023-01-19T04:44:54.133Z,47.70
2023-01-19T04:47:25.950Z,52.10
2023-01-19T04:49:57.884Z,41.50
2023-01-19T04:52:35.686Z,51.50
2023-01-19T04:55:09.498Z,41.00
2023-01-19T04:57:41.318Z,49.60
2023-01-19T05:00:15.408Z,46.40
2023-01-19T05:05:18.430Z,46.70
2023-01-19T05:07:50.502Z,43.50
2023-01-19T05:10:22.333Z,43.00
2023-01-19T05:12:54.182Z,45.10
2023-01-19T05:15:26.088Z,46.30
2023-01-19T05:17:58.680Z,44.80
2023-01-19T05:20:30.781Z,44.80
2023-01-19T05:23:02.928Z,39.80
2023-01-19T05:25:35.491Z,43.20
2023-01-19T05:28:07.709Z,39.80
2023-01-19T05:30:39.651Z,40.40
2023-01-19T05:33:11.475Z,43.90
2023-01-19T05:35:43.514Z,43.40
2023-01-19T05:38:20.831Z,40.50
2023-01-19T05:40:57.344Z,44.10
2023-01-19T05:43:29.158Z,40.20
2023-01-19T05:46:01.030Z,45.20
2023-01-19T05:48:32.865Z,40.50
2023-01-19T05:51:05.184Z,49.80
2023-01-19T05:53:37.099Z,38.50
2023-01-19T05:56:10.877Z,46.10
2023-01-19T05:58:42.777Z,48.80
2023-01-19T06:01:14.670Z,40.50
2023-01-19T06:03:47.488Z,44.80
2023-01-19T06:06:19.478Z,41.50
2023-01-19T06:08:51.340Z,46.50
2023-01-19T06:11:23.196Z,45.20
2023-01-19T06:13:55.481Z,45.30
2023-01-19T06:19:23.509Z,35.20
2023-01-19T06:21:55.595Z,42.30
2023-01-19T06:24:28.011Z,40.50
2023-01-19T06:27:00.488Z,42.20
2023-01-19T06:29:32.683Z,40.70
2023-01-19T06:32:04.655Z,42.10
2023-01-19T06:34:36.382Z,42.30
2023-01-19T06:37:12.318Z,41.60
2023-01-19T06:39:45.617Z,36.70
2023-01-19T06:42:17.553Z,43.90
2023-01-19T06:44:49.429Z,26.60
2023-01-19T06:47:21.528Z,39.30
2023-01-19T06:49:53.435Z,42.60
2023-01-19T06:52:25.372Z,44.40
2023-01-19T06:54:57.164Z,40.80
2023-01-19T06:57:28.915Z,32.90
2023-01-19T07:00:02.154Z,37.40
2023-01-19T07:02:34.081Z,37.20
2023-01-19T07:05:07.111Z,33.70
2023-01-19T07:07:40.065Z,33.70
2023-01-19T07:10:15.813Z,32.50
2023-01-19T07:12:47.779Z,37.40
2023-01-19T07:15:22.981Z,48.10
2023-01-19T07:17:54.767Z,33.40
2023-01-19T07:20:26.562Z,34.70
2023-01-19T07:23:00.199Z,44.70
2023-01-19T07:25:32.430Z,43.90
2023-01-19T07:28:04.627Z,37.10
2023-01-19T07:30:36.613Z,36.10
2023-01-19T07:33:08.610Z,22.90
2023-01-19T07:35:40.622Z,35.20
2023-01-19T07:38:12.475Z,35.10
2023-01-19T07:40:44.500Z,31.10
2023-01-19T07:43:16.686Z,28.60
2023-01-19T07:45:48.456Z,38.80
2023-01-19T07:48:20.333Z,30.00
2023-01-19T07:50:52.112Z,32.40
2023-01-19T07:53:23.901Z,38.80
2023-01-19T07:55:58.224Z,29.00
2023-01-19T07:58:29.967Z,34.90
2023-01-19T08:01:02.143Z,31.20
2023-01-19T08:03:34.598Z,31.20
2023-01-19T08:06:07.218Z,32.80
2023-01-19T08:08:39.196Z,29.50
2023-01-19T08:11:11.131Z,23.90
2023-01-19T08:13:43.379Z,35.60
2023-01-19T08:16:15.630Z,35.90
2023-01-19T08:18:47.503Z,31.50
2023-01-19T08:21:19.546Z,40.00
2023-01-19T08:23:55.916Z,40.40
2023-01-19T08:26:32.355Z,37.50
2023-01-19T08:29:06.899Z,34.80
2023-01-19T08:31:39.919Z,30.30
2023-01-19T08:34:12.214Z,35.40
2023-01-19T08:36:44.350Z,30.60
2023-01-19T08:39:18.047Z,34.90
2023-01-19T08:41:50.004Z,30.00
2023-01-19T08:44:22.119Z,26.30
2023-01-19T08:46:54.405Z,35.30
2023-01-19T08:49:26.539Z,26.40
2023-01-19T08:51:58.496Z,30.50
2023-01-19T08:54:30.574Z,31.50
2023-01-19T08:57:02.802Z,37.70
2023-01-19T08:59:34.861Z,36.80
2023-01-19T09:02:06.826Z,31.90
2023-01-19T09:04:38.870Z,46.40
2023-01-19T09:07:11.064Z,35.20
2023-01-19T09:09:43.601Z,30.10
2023-01-19T09:12:16.063Z,41.80
2023-01-19T09:14:48.001Z,29.40
2023-01-19T09:17:20.066Z,35.70
2023-01-19T09:19:52.146Z,30.20
2023-01-19T09:22:24.321Z,34.50
2023-01-19T09:24:56.315Z,33.70
2023-01-19T09:27:28.556Z,37.70
2023-01-19T09:30:00.474Z,31.60
2023-01-19T09:32:32.300Z,32.30
2023-01-19T09:35:04.330Z,29.60
2023-01-19T09:37:36.176Z,53.10
2023-01-19T09:40:10.235Z,43.50
2023-01-19T09:42:44.977Z,40.10
2023-01-19T09:45:20.116Z,29.00
2023-01-19T09:47:52.729Z,38.20
2023-01-19T09:50:28.747Z,40.80
2023-01-19T09:53:05.599Z,49.20
2023-01-19T09:55:39.486Z,36.70
2023-01-19T09:58:16.383Z,41.10
2023-01-19T10:00:51.943Z,39.00
2023-01-19T10:03:25.231Z,44.30
2023-01-19T10:06:03.648Z,38.90
2023-01-19T10:08:42.485Z,44.50
2023-01-19T10:11:34.523Z,45.50
2023-01-19T10:14:19.160Z,37.70
2023-01-19T10:16:54.515Z,31.50
2023-01-19T10:19:31.031Z,44.40
2023-01-19T10:22:09.146Z,38.20
2023-01-19T10:24:43.011Z,40.50
2023-01-19T10:27:18.926Z,33.00
2023-01-19T10:29:51.079Z,41.00
2023-01-19T10:32:24.085Z,27.50
2023-01-19T10:34:58.432Z,45.30
2023-01-19T10:37:34.882Z,32.40
2023-01-19T10:40:28.017Z,30.30
2023-01-19T10:43:00.823Z,35.80
2023-01-19T10:45:36.888Z,34.20
2023-01-19T10:48:13.025Z,41.70
2023-01-19T10:50:44.832Z,36.30
2023-01-19T10:53:25.805Z,39.00
2023-01-19T10:58:54.870Z,35.10
2023-01-19T11:01:28.329Z,45.90
2023-01-19T11:04:05.934Z,38.20
2023-01-19T11:06:38.053Z,32.00
2023-01-19T11:09:19.513Z,38.80
2023-01-19T11:11:53.257Z,42.70
2023-01-19T11:14:26.404Z,38.10
2023-01-19T11:16:59.296Z,47.40
2023-01-19T11:19:33.097Z,36.90
2023-01-19T11:22:21.597Z,45.30
2023-01-19T11:24:53.708Z,43.30
2023-01-19T11:27:25.583Z,44.00
2023-01-19T11:30:05.459Z,30.70
2023-01-19T11:32:37.591Z,47.30
2023-01-19T11:35:34.457Z,42.30
2023-01-19T11:38:16.952Z,41.80
2023-01-19T11:40:54.382Z,43.00
2023-01-19T11:43:43.297Z,42.40
2023-01-19T11:46:21.291Z,43.90
2023-01-19T11:48:58.114Z,37.00
2023-01-19T11:51:35.382Z,47.70
2023-01-19T11:54:15.020Z,27.90
2023-01-19T11:56:48.517Z,40.90
2023-01-19T11:59:21.274Z,35.60
2023-01-19T12:01:57.922Z,32.20
2023-01-19T12:04:32.324Z,35.80
2023-01-19T12:09:44.344Z,32.10
2023-01-19T12:12:22.608Z,38.00
2023-01-19T12:14:58.681Z,39.70
2023-01-19T12:17:33.515Z,39.70
2023-01-19T12:20:15.137Z,41.80
2023-01-19T12:22:50.833Z,45.80
2023-01-19T12:25:26.229Z,42.00
2023-01-19T12:27:59.437Z,30.30
2023-01-19T12:30:32.356Z,41.70
2023-01-19T12:33:38.035Z,34.80
2023-01-19T12:36:14.291Z,33.10
2023-01-19T12:38:49.017Z,41.90
2023-01-19T12:41:29.971Z,41.20
2023-01-19T12:44:24.181Z,39.20
2023-01-19T12:47:03.472Z,28.10
2023-01-19T12:49:40.915Z,35.50
2023-01-19T12:52:34.457Z,33.20
2023-01-19T12:55:23.231Z,38.70
2023-01-19T12:58:01.510Z,35.70
2023-01-19T13:00:41.354Z,29.30
2023-01-19T13:03:53.333Z,44.30
2023-01-19T13:07:05.937Z,30.10
2023-01-19T13:09:38.579Z,31.50
2023-01-19T13:12:27.834Z,34.00
2023-01-19T13:15:35.032Z,50.00
2023-01-19T13:18:08.084Z,38.40
2023-01-19T13:20:48.005Z,38.40
2023-01-19T13:23:23.222Z,28.20
2023-01-19T13:26:00.147Z,38.90
2023-01-19T13:28:39.319Z,43.80
2023-01-19T13:31:12.387Z,42.90
2023-01-19T13:33:51.167Z,35.60
2023-01-19T13:36:27.380Z,44.80
2023-01-19T13:39:01.335Z,42.50
2023-01-19T13:41:36.734Z,43.50
2023-01-19T13:44:11.405Z,46.00
2023-01-19T13:46:44.045Z,42.40
2023-01-19T13:49:20.541Z,41.80
2023-01-19T13:54:54.481Z,38.40
2023-01-19T13:57:27.974Z,41.00
2023-01-19T14:00:19.077Z,35.60
2023-01-19T14:03:02.589Z,42.40
2023-01-19T14:05:36.211Z,26.20
2023-01-19T14:08:15.465Z,32.20
2023-01-19T14:10:48.426Z,26.90
2023-01-19T14:13:22.418Z,30.40
2023-01-19T14:15:56.660Z,31.40
2023-01-19T14:18:31.353Z,42.10
2023-01-19T14:21:06.299Z,41.70
2023-01-19T14:23:49.573Z,40.60
2023-01-19T14:26:47.482Z,29.20
2023-01-19T14:29:26.313Z,35.50
2023-01-19T14:32:13.876Z,37.20
2023-01-19T14:34:47.556Z,27.00
2023-01-19T14:37:22.277Z,39.80
2023-01-19T14:39:56.303Z,36.10
2023-01-19T14:42:30.349Z,36.40
2023-01-19T14:45:04.307Z,35.50
2023-01-19T14:47:41.410Z,25.30
2023-01-19T14:50:22.047Z,33.90
2023-01-19T14:52:57.115Z,32.00
2023-01-19T14:55:35.058Z,34.10
2023-01-19T14:58:13.110Z,42.80
2023-01-19T15:00:46.198Z,38.50
2023-01-19T15:03:18.690Z,35.20
2023-01-19T15:05:52.001Z,27.40
2023-01-19T15:08:28.863Z,33.50
2023-01-19T15:11:01.205Z,36.20
2023-01-19T15:13:33.029Z,36.80
2023-01-19T15:16:05.412Z,35.50
2023-01-19T15:18:38.717Z,30.70
2023-01-19T15:21:14.316Z,34.40
2023-01-19T15:23:46.096Z,39.40
2023-01-19T15:26:19.443Z,26.40
2023-01-19T15:28:51.511Z,31.90
2023-01-19T15:31:25.065Z,28.80
2023-01-19T15:33:57.296Z,30.60
2023-01-19T15:36:29.544Z,25.40
2023-01-19T15:39:01.306Z,28.10
2023-01-19T15:41:33.764Z,28.30
2023-01-19T15:44:06.377Z,22.30
2023-01-19T15:46:38.597Z,27.40
2023-01-19T15:49:10.447Z,20.90
2023-01-19T15:51:42.409Z,27.30
2023-01-19T15:54:15.631Z,22.80
2023-01-19T15:56:47.727Z,27.10
2023-01-19T15:59:19.641Z,22.80
2023-01-19T16:01:52.028Z,20.50
2023-01-19T16:04:24.140Z,22.20
2023-01-19T16:06:56.376Z,22.60
2023-01-19T16:09:28.143Z,23.10
2023-01-19T16:12:00.523Z,24.40
2023-01-19T16:14:32.646Z,23.80
2023-01-19T16:17:05.938Z,24.10
2023-01-19T16:19:37.830Z,25.50
2023-01-19T16:22:09.781Z,20.50
2023-01-19T16:24:41.619Z,31.40
2023-01-19T16:27:13.676Z,23.90
2023-01-19T16:29:45.589Z,19.70
2023-01-19T16:32:18.129Z,19.70
2023-01-19T16:34:49.961Z,18.30
2023-01-19T16:37:22.384Z,23.50
2023-01-19T16:39:54.250Z,22.10
2023-01-19T16:42:26.112Z,18.10
2023-01-19T16:44:58.196Z,21.00
2023-01-19T16:47:30.188Z,15.40
2023-01-19T16:50:02.146Z,20.90
2023-01-19T16:52:34.259Z,18.20
2023-01-19T16:55:09.500Z,26.00
2023-01-19T16:57:41.858Z,16.90
2023-01-19T17:00:15.547Z,24.70
2023-01-19T17:02:47.421Z,21.10
2023-01-19T17:05:19.489Z,22.60
2023-01-19T17:07:51.449Z,23.70
2023-01-19T17:10:23.566Z,34.00
2023-01-19T17:12:55.429Z,26.00
2023-01-19T17:15:27.549Z,29.10
2023-01-19T17:17:59.853Z,24.80
2023-01-19T17:20:33.797Z,27.80
2023-01-19T17:25:36.321Z,42.60
2023-01-19T17:28:08.439Z,48.20
2023-01-19T17:30:40.345Z,50.10
2023-01-19T17:33:12.849Z,45.90
2023-01-19T17:35:46.825Z,34.40
2023-01-19T17:38:19.379Z,25.60
2023-01-19T17:40:51.247Z,25.90
2023-01-19T17:43:23.464Z,38.50
2023-01-19T17:45:55.367Z,26.30
2023-01-19T17:48:27.736Z,29.30
2023-01-19T17:51:05.986Z,23.80
2023-01-19T17:53:39.070Z,26.10
2023-01-19T17:56:13.036Z,26.30
2023-01-19T17:58:45.579Z,31.00
2023-01-19T18:01:19.313Z,24.20
2023-01-19T18:03:52.893Z,31.10
2023-01-19T18:06:25.160Z,28.40
2023-01-19T18:08:57.546Z,27.00
2023-01-19T18:11:29.953Z,29.30
2023-01-19T18:14:02.274Z,24.50
2023-01-19T18:16:34.310Z,27.40
2023-01-19T18:19:06.394Z,34.90
2023-01-19T18:21:38.908Z,29.70
2023-01-19T18:24:10.905Z,34.00
2023-01-19T18:26:42.874Z,33.90
2023-01-19T18:29:16.692Z,27.10
2023-01-19T18:31:48.804Z,39.20
2023-01-19T18:34:20.901Z,26.30
2023-01-19T18:36:52.688Z,41.30
2023-01-19T18:39:24.695Z,36.30
2023-01-19T18:41:56.559Z,37.10
2023-01-19T18:44:28.994Z,31.30
2023-01-19T18:47:00.857Z,29.40
2023-01-19T18:49:32.737Z,38.30
2023-01-19T18:52:05.061Z,31.60
2023-01-19T18:54:37.007Z,32.10
2023-01-19T18:57:08.775Z,33.20
2023-01-19T18:59:42.621Z,32.10
2023-01-19T19:02:14.977Z,34.20
2023-01-19T19:04:47.428Z,38.00
2023-01-19T19:07:19.440Z,42.10
2023-01-19T19:09:51.528Z,43.00
2023-01-19T19:12:23.519Z,28.20
2023-01-19T19:14:55.654Z,42.60
2023-01-19T19:17:27.696Z,44.30
2023-01-19T19:19:59.911Z,31.80
2023-01-19T19:22:32.854Z,42.10
2023-01-19T19:25:04.931Z,35.00
2023-01-19T19:27:37.120Z,41.70
2023-01-19T19:30:11.363Z,38.60
2023-01-19T19:32:43.673Z,27.40
2023-01-19T19:35:18.731Z,36.20
2023-01-19T19:37:51.595Z,44.40
2023-01-19T19:40:23.955Z,41.30
2023-01-19T19:42:58.406Z,43.40
2023-01-19T19:45:30.872Z,42.40
2023-01-19T19:48:02.777Z,45.10
2023-01-19T19:50:37.066Z,39.00
2023-01-19T19:53:08.950Z,54.20
2023-01-19T19:55:41.479Z,37.40
2023-01-19T19:58:13.470Z,38.80
2023-01-19T20:00:46.022Z,42.70
2023-01-19T20:03:17.840Z,52.70
2023-01-19T20:05:49.820Z,56.60
2023-01-19T20:08:21.746Z,46.70
2023-01-19T20:10:53.579Z,45.80
2023-01-19T20:13:25.417Z,34.40
2023-01-19T20:15:57.342Z,40.90
2023-01-19T20:18:29.446Z,46.80
2023-01-19T20:21:01.404Z,42.60
2023-01-19T20:23:33.846Z,48.00
2023-01-19T20:26:09.352Z,28.60
2023-01-19T20:28:41.648Z,50.40
2023-01-19T20:31:16.965Z,45.00
2023-01-19T20:33:49.529Z,21.10
2023-01-19T20:36:22.150Z,48.20
2023-01-19T20:38:55.325Z,52.20
2023-01-19T20:41:28.317Z,49.40
2023-01-19T20:44:00.284Z,55.90
2023-01-19T20:46:32.276Z,41.40
2023-01-19T20:49:04.214Z,51.20
2023-01-19T20:51:37.519Z,54.40
2023-01-19T20:54:10.903Z,58.70
2023-01-19T20:56:43.283Z,54.10
2023-01-19T20:59:15.641Z,52.60
2023-01-19T21:01:48.703Z,33.90
2023-01-19T21:04:22.433Z,34.60
2023-01-19T21:06:54.408Z,31.70
2023-01-19T21:09:26.256Z,53.00
2023-01-19T21:11:58.325Z,36.70
2023-01-19T21:14:30.211Z,45.90
2023-01-19T21:17:02.340Z,49.70
2023-01-19T21:19:34.195Z,48.90
2023-01-19T21:22:06.238Z,44.10
2023-01-19T21:24:38.058Z,40.00
2023-01-19T21:27:10.694Z,21.90
2023-01-19T21:29:42.473Z,41.70
2023-01-19T21:32:15.281Z,45.70
2023-01-19T21:34:47.091Z,42.20
2023-01-19T21:37:19.097Z,43.60
2023-01-19T21:39:50.856Z,22.30
2023-01-19T21:42:22.781Z,38.40
2023-01-19T21:44:54.645Z,46.60
2023-01-19T21:47:26.737Z,29.60
2023-01-19T21:49:58.569Z,54.10
2023-01-19T21:52:30.593Z,39.20
2023-01-19T21:55:02.389Z,33.90
2023-01-19T21:57:34.507Z,32.00
2023-01-19T22:00:08.069Z,34.90
2023-01-19T22:02:40.589Z,36.10
2023-01-19T22:05:13.861Z,49.20
2023-01-19T22:07:46.036Z,36.50
2023-01-19T22:10:18.646Z,38.70
2023-01-19T22:12:50.780Z,29.50
2023-01-19T22:15:22.644Z,40.20
2023-01-19T22:17:54.666Z,43.00
2023-01-19T22:20:26.427Z,34.10
2023-01-19T22:22:58.476Z,31.70
2023-01-19T22:25:30.670Z,22.70
2023-01-19T22:28:02.699Z,31.70
2023-01-19T22:30:34.639Z,36.50
2023-01-19T22:33:06.891Z,31.00
2023-01-19T22:35:38.739Z,19.80
2023-01-19T22:38:11.001Z,45.90
2023-01-19T22:40:42.832Z,27.00
2023-01-19T22:43:14.715Z,43.60
2023-01-19T22:45:46.612Z,46.50
2023-01-19T22:48:18.610Z,43.80
2023-01-19T22:50:50.393Z,36.40
2023-01-19T22:53:22.172Z,54.10
2023-01-19T22:55:53.995Z,48.20
2023-01-19T22:58:25.973Z,60.60
2023-01-19T23:00:57.891Z,39.20
2023-01-19T23:03:30.030Z,22.60
2023-01-19T23:06:06.071Z,51.40
2023-01-19T23:08:38.774Z,53.50
2023-01-19T23:11:13.022Z,65.60
2023-01-19T23:13:45.118Z,55.80
2023-01-19T23:16:17.422Z,60.00
2023-01-19T23:18:49.609Z,62.70
2023-01-19T23:21:23.566Z,57.40
2023-01-19T23:26:28.822Z,60.80
2023-01-19T23:29:02.622Z,41.40
2023-01-19T23:31:36.395Z,63.50
2023-01-19T23:34:10.520Z,64.30
2023-01-19T23:39:16.557Z,49.20
2023-01-19T23:41:49.152Z,67.30
2023-01-19T23:44:21.208Z,57.90
2023-01-19T23:46:53.075Z,73.40
2023-01-19T23:49:25.094Z,75.30
2023-01-19T23:51:56.947Z,61.20
2023-01-19T23:54:28.966Z,63.80
2023-01-19T23:57:00.700Z,54.30
2023-01-19T23:59:32.613Z,63.80
